sensor_id;sensor_type;location;lat;lon;timestamp;P1;P4;P2;P0;N10;N4;N25;N1;N05;TS
44530;SPS30;30240;47.418;0.700;2024-01-06T12:00:28;33.266075;;23.16853;;;;;;;
44530;SPS30;30240;47.418;0.700;2024-01-06T12:02:56;30.198627;;21.217354;;;;;;;
44530;SPS30;30240;47.418;0.700;2024-01-06T12:05:19;12.889062;;12.765355;;;;;;;
44530;SPS30;30240;47.418;0.700;2024-01-06T12:07:52;10.707451;;10.557168;;;;;;;
44530;SPS30;30240;47.418;0.700;2024-01-06T12:07:52;10.707451;;10.557168;;;;;;;
44530;SPS30;30240;47.418;0.700;2024-01-06T12:10:09;12.060575;;11.893438;;;;;;;
44530;SPS30;30240;47.418;0.700;2024-01-06T12:12:33;12.060575;;11.893438;;;;;;;
44530;SPS30;30240;47.418;0.700;2024-01-06T12:14:58;12.068064;;12.068064;;;;;;;
44530;SPS30;30240;47.418;0.700;2024-01-06T12:17:24;12.85642;;12.810315;;;;;;;
44530;SPS30;30240;47.418;0.700;2024-01-06T12:19:48;8.63729;;8.612857;;;;;;;
44530;SPS30;30240;47.418;0.700;2024-01-06T12:22:14;8.07018;;8.005449;;;;;;;
44530;SPS30;30240;47.418;0.700;2024-01-06T12:24:38;8.07018;;8.005449;;;;;;;
44530;SPS30;30240;47.418;0.700;2024-01-06T12:27:06;8.60117;;8.60117;;;;;;;
44530;SPS30;30240;47.418;0.700;2024-01-06T12:29:28;8.391269;;8.391269;;;;;;;
44530;SPS30;30240;47.418;0.700;2024-01-06T12:31:53;8.140153;;8.066939;;;;;;;
44530;SPS30;30240;47.418;0.700;2024-01-06T12:34:18;8.362348;;8.25814;;;;;;;
44530;SPS30;30240;47.418;0.700;2024-01-06T12:36:44;8.362348;;8.25814;;;;;;;
44530;SPS30;30240;47.418;0.700;2024-01-06T12:39:10;7.8324947;;7.8324947;;;;;;;
44530;SPS30;30240;47.418;0.700;2024-01-06T12:41:34;7.853172;;7.816753;;;;;;;
44530;SPS30;30240;47.418;0.700;2024-01-06T12:43:59;9.217921;;9.061386;;;;;;;
44530;SPS30;30240;47.418;0.700;2024-01-06T12:46:24;7.7343216;;7.677416;;;;;;;
44530;SPS30;30240;47.418;0.700;2024-01-06T12:48:49;7.7343216;;7.677416;;;;;;;
44530;SPS30;30240;47.418;0.700;2024-01-06T12:51:14;10.7487335;;10.60729;;;;;;;
44530;SPS30;30240;47.418;0.700;2024-01-06T12:53:38;9.520493;;9.433057;;;;;;;
44530;SPS30;30240;47.418;0.700;2024-01-06T12:56:04;8.735409;;8.727505;;;;;;;
44530;SPS30;30240;47.418;0.700;2024-01-06T12:58:29;7.548101;;7.535177;;;;;;;
44530;SPS30;30240;47.418;0.700;2024-01-06T13:00:54;7.548101;;7.535177;;;;;;;
44530;SPS30;30240;47.418;0.700;2024-01-06T13:03:19;6.0548983;;5.9936614;;;;;;;
44530;SPS30;30240;47.418;0.700;2024-01-06T13:05:44;5.854905;;5.854905;;;;;;;
44530;SPS30;30240;47.418;0.700;2024-01-06T13:08:09;5.4726872;;5.45108;;;;;;;
44530;SPS30;30240;47.418;0.700;2024-01-06T13:10:34;5.5380874;;5.4738007;;;;;;;
44530;SPS30;30240;47.418;0.700;2024-01-06T13:12:59;5.5380874;;5.4738007;;;;;;;
44530;SPS30;30240;47.418;0.700;2024-01-06T13:15:23;6.2317896;;6.1514792;;;;;;;
44530;SPS30;30240;47.418;0.700;2024-01-06T13:17:48;5.86971;;5.86971;;;;;;;
44530;SPS30;30240;47.418;0.700;2024-01-06T13:20:13;5.694924;;5.694924;;;;;;;
44530;SPS30;30240;47.418;0.700;2024-01-06T13:22:38;6.073175;;6.073175;;;;;;;
44530;SPS30;30240;47.418;0.700;2024-01-06T13:25:04;6.073175;;6.073175;;;;;;;
44530;SPS30;30240;47.418;0.700;2024-01-06T13:27:28;5.6151323;;5.6151323;;;;;;;
44530;SPS30;30240;47.418;0.700;2024-01-06T13:29:54;6.0542645;;6.0542645;;;;;;;
44530;SPS30;30240;47.418;0.700;2024-01-06T13:32:19;5.7028747;;5.7028747;;;;;;;
44530;SPS30;30240;47.418;0.700;2024-01-06T13:34:51;4.3769984;;4.3769984;;;;;;;
44530;SPS30;30240;47.418;0.700;2024-01-06T13:37:09;4.3815827;;4.3815827;;;;;;;
44530;SPS30;30240;47.418;0.700;2024-01-06T13:39:33;4.3815827;;4.3815827;;;;;;;
44530;SPS30;30240;47.418;0.700;2024-01-06T13:41:59;4.332309;;4.332309;;;;;;;
44530;SPS30;30240;47.418;0.700;2024-01-06T13:44:23;5.265162;;5.251454;;;;;;;
44530;SPS30;30240;47.418;0.700;2024-01-06T13:46:49;13.376597;;13.216363;;;;;;;
44530;SPS30;30240;47.418;0.700;2024-01-06T13:49:14;17.48427;;17.073826;;;;;;;
44530;SPS30;30240;47.418;0.700;2024-01-06T13:51:39;17.48427;;17.073826;;;;;;;
44530;SPS30;30240;47.418;0.700;2024-01-06T13:54:04;14.26455;;13.774065;;;;;;;
44530;SPS30;30240;47.418;0.700;2024-01-06T13:56:28;9.97286;;9.780144;;;;;;;
44530;SPS30;30240;47.418;0.700;2024-01-06T13:58:54;6.4683037;;6.4179153;;;;;;;
44530;SPS30;30240;47.418;0.700;2024-01-06T14:01:18;5.0840597;;5.0482817;;;;;;;
44530;SPS30;30240;47.418;0.700;2024-01-06T14:03:44;5.0840597;;5.0482817;;;;;;;
44530;SPS30;30240;47.418;0.700;2024-01-06T14:06:08;5.431892;;5.420116;;;;;;;
44530;SPS30;30240;47.418;0.700;2024-01-06T14:08:33;4.8599205;;4.8599205;;;;;;;
44530;SPS30;30240;47.418;0.700;2024-01-06T14:10:59;3.9572113;;3.9283414;;;;;;;
44530;SPS30;30240;47.418;0.700;2024-01-06T14:13:23;5.0249715;;5.0249715;;;;;;;
44530;SPS30;30240;47.418;0.700;2024-01-06T14:15:49;5.0249715;;5.0249715;;;;;;;
44530;SPS30;30240;47.418;0.700;2024-01-06T14:18:13;5.8671036;;5.8671036;;;;;;;
44530;SPS30;30240;47.418;0.700;2024-01-06T14:20:38;4.596005;;4.596005;;;;;;;
44530;SPS30;30240;47.418;0.700;2024-01-06T14:23:04;5.1146293;;5.1146293;;;;;;;
44530;SPS30;30240;47.418;0.700;2024-01-06T14:25:28;4.575157;;4.575157;;;;;;;
44530;SPS30;30240;47.418;0.700;2024-01-06T14:27:54;4.575157;;4.575157;;;;;;;
44530;SPS30;30240;47.418;0.700;2024-01-06T14:30:18;4.0267887;;4.0267887;;;;;;;
44530;SPS30;30240;47.418;0.700;2024-01-06T14:32:44;4.3874297;;4.3874297;;;;;;;
44530;SPS30;30240;47.418;0.700;2024-01-06T14:35:09;3.7942624;;3.753916;;;;;;;
44530;SPS30;30240;47.418;0.700;2024-01-06T14:37:34;3.881683;;3.8416793;;;;;;;
44530;SPS30;30240;47.418;0.700;2024-01-06T14:39:58;3.881683;;3.8416793;;;;;;;
44530;SPS30;30240;47.418;0.700;2024-01-06T14:42:23;3.9699984;;3.9699984;;;;;;;
44530;SPS30;30240;47.418;0.700;2024-01-06T14:44:48;3.4814703;;3.4808629;;;;;;;
44530;SPS30;30240;47.418;0.700;2024-01-06T14:47:14;3.9248338;;3.8896098;;;;;;;
44530;SPS30;30240;47.418;0.700;2024-01-06T14:49:38;4.404066;;4.3539777;;;;;;;
44530;SPS30;30240;47.418;0.700;2024-01-06T14:52:04;4.404066;;4.3539777;;;;;;;
44530;SPS30;30240;47.418;0.700;2024-01-06T14:54:28;4.553121;;4.5166945;;;;;;;
44530;SPS30;30240;47.418;0.700;2024-01-06T14:56:53;3.7931125;;3.7507463;;;;;;;
44530;SPS30;30240;47.418;0.700;2024-01-06T14:59:18;4.6818347;;4.6818347;;;;;;;
44530;SPS30;30240;47.418;0.700;2024-01-06T15:01:44;4.20309;;4.20309;;;;;;;
44530;SPS30;30240;47.418;0.700;2024-01-06T15:04:08;4.20309;;4.20309;;;;;;;
44530;SPS30;30240;47.418;0.700;2024-01-06T15:06:34;5.0720525;;5.0720525;;;;;;;
44530;SPS30;30240;47.418;0.700;2024-01-06T15:08:58;4.5213294;;4.5213294;;;;;;;
44530;SPS30;30240;47.418;0.700;2024-01-06T15:11:23;10.842277;;10.426149;;;;;;;
44530;SPS30;30240;47.418;0.700;2024-01-06T15:13:49;10.319929;;9.685568;;;;;;;
44530;SPS30;30240;47.418;0.700;2024-01-06T15:16:13;6.307233;;5.9457436;;;;;;;
44530;SPS30;30240;47.418;0.700;2024-01-06T15:18:38;6.307233;;5.9457436;;;;;;;
44530;SPS30;30240;47.418;0.700;2024-01-06T15:21:04;12.247314;;11.665511;;;;;;;
44530;SPS30;30240;47.418;0.700;2024-01-06T15:23:29;10.297383;;10.068548;;;;;;;
44530;SPS30;30240;47.418;0.700;2024-01-06T15:25:53;9.700547;;9.497218;;;;;;;
44530;SPS30;30240;47.418;0.700;2024-01-06T15:28:19;8.987146;;8.791191;;;;;;;
44530;SPS30;30240;47.418;0.700;2024-01-06T15:30:43;8.987146;;8.791191;;;;;;;
44530;SPS30;30240;47.418;0.700;2024-01-06T15:33:08;10.611452;;10.378453;;;;;;;
44530;SPS30;30240;47.418;0.700;2024-01-06T15:35:33;8.8579855;;8.548935;;;;;;;
44530;SPS30;30240;47.418;0.700;2024-01-06T15:37:58;11.565914;;11.404359;;;;;;;
44530;SPS30;30240;47.418;0.700;2024-01-06T15:40:23;8.780235;;8.593167;;;;;;;
44530;SPS30;30240;47.418;0.700;2024-01-06T15:42:48;8.780235;;8.593167;;;;;;;
44530;SPS30;30240;47.418;0.700;2024-01-06T15:45:14;4.662608;;4.5513144;;;;;;;
44530;SPS30;30240;47.418;0.700;2024-01-06T15:47:38;5.576918;;5.5426064;;;;;;;
44530;SPS30;30240;47.418;0.700;2024-01-06T15:50:04;4.408381;;4.408381;;;;;;;
44530;SPS30;30240;47.418;0.700;2024-01-06T15:52:28;4.342313;;4.342313;;;;;;;
44530;SPS30;30240;47.418;0.700;2024-01-06T15:54:53;4.342313;;4.342313;;;;;;;
44530;SPS30;30240;47.418;0.700;2024-01-06T15:57:19;9.632612;;9.516862;;;;;;;
44530;SPS30;30240;47.418;0.700;2024-01-06T15:59:43;8.011928;;8.004976;;;;;;;
44530;SPS30;30240;47.418;0.700;2024-01-06T16:02:08;8.918865;;8.826855;;;;;;;
44530;SPS30;30240;47.418;0.700;2024-01-06T16:04:33;7.8933625;;7.7634044;;;;;;;
44530;SPS30;30240;47.418;0.700;2024-01-06T16:06:58;7.8933625;;7.7634044;;;;;;;
44530;SPS30;30240;47.418;0.700;2024-01-06T16:09:23;7.3847327;;7.338189;;;;;;;
44530;SPS30;30240;47.418;0.700;2024-01-06T16:11:48;4.821095;;4.821002;;;;;;;
44530;SPS30;30240;47.418;0.700;2024-01-06T16:14:14;5.3068857;;5.3068857;;;;;;;
44530;SPS30;30240;47.418;0.700;2024-01-06T16:16:38;4.97576;;4.97342;;;;;;;
44530;SPS30;30240;47.418;0.700;2024-01-06T16:19:03;4.97576;;4.97342;;;;;;;
44530;SPS30;30240;47.418;0.700;2024-01-06T16:21:28;8.191695;;8.191695;;;;;;;
44530;SPS30;30240;47.418;0.700;2024-01-06T16:23:53;5.64574;;5.64574;;;;;;;
44530;SPS30;30240;47.418;0.700;2024-01-06T16:26:18;5.1285443;;5.1285443;;;;;;;
44530;SPS30;30240;47.418;0.700;2024-01-06T16:28:44;5.711596;;5.711596;;;;;;;
44530;SPS30;30240;47.418;0.700;2024-01-06T16:31:08;5.711596;;5.711596;;;;;;;
44530;SPS30;30240;47.418;0.700;2024-01-06T16:33:34;6.5307245;;6.4407516;;;;;;;
44530;SPS30;30240;47.418;0.700;2024-01-06T16:35:58;9.325498;;9.230911;;;;;;;
44530;SPS30;30240;47.418;0.700;2024-01-06T16:38:23;11.627638;;11.350706;;;;;;;
44530;SPS30;30240;47.418;0.700;2024-01-06T16:40:48;11.407073;;11.222612;;;;;;;
44530;SPS30;30240;47.418;0.700;2024-01-06T16:43:13;11.821931;;11.686973;;;;;;;
44530;SPS30;30240;47.418;0.700;2024-01-06T16:45:38;11.821931;;11.686973;;;;;;;
44530;SPS30;30240;47.418;0.700;2024-01-06T16:48:05;14.56727;;14.436733;;;;;;;
44530;SPS30;30240;47.418;0.700;2024-01-06T16:50:28;24.96563;;23.751545;;;;;;;
44530;SPS30;30240;47.418;0.700;2024-01-06T16:52:53;25.026821;;24.196619;;;;;;;
44530;SPS30;30240;47.418;0.700;2024-01-06T16:55:18;29.765736;;28.697159;;;;;;;
44530;SPS30;30240;47.418;0.700;2024-01-06T16:57:43;29.765736;;28.697159;;;;;;;
44530;SPS30;30240;47.418;0.700;2024-01-06T17:00:09;17.06322;;16.68071;;;;;;;
44530;SPS30;30240;47.418;0.700;2024-01-06T17:02:33;11.816041;;11.726996;;;;;;;
44530;SPS30;30240;47.418;0.700;2024-01-06T17:04:59;15.224707;;14.90993;;;;;;;
44530;SPS30;30240;47.418;0.700;2024-01-06T17:07:24;12.504504;;12.426634;;;;;;;
44530;SPS30;30240;47.418;0.700;2024-01-06T17:09:48;12.504504;;12.426634;;;;;;;
44530;SPS30;30240;47.418;0.700;2024-01-06T17:12:14;11.863171;;11.805345;;;;;;;
44530;SPS30;30240;47.418;0.700;2024-01-06T17:14:39;16.88528;;16.444256;;;;;;;
44530;SPS30;30240;47.418;0.700;2024-01-06T17:17:04;17.691889;;17.029106;;;;;;;
44530;SPS30;30240;47.418;0.700;2024-01-06T17:19:28;14.247204;;13.940358;;;;;;;
44530;SPS30;30240;47.418;0.700;2024-01-06T17:21:54;14.247204;;13.940358;;;;;;;
44530;SPS30;30240;47.418;0.700;2024-01-06T17:24:18;13.28284;;12.971939;;;;;;;
44530;SPS30;30240;47.418;0.700;2024-01-06T17:26:43;14.320306;;13.927669;;;;;;;
44530;SPS30;30240;47.418;0.700;2024-01-06T17:29:08;8.784901;;8.7439375;;;;;;;
44530;SPS30;30240;47.418;0.700;2024-01-06T17:31:34;9.4351225;;9.379095;;;;;;;
44530;SPS30;30240;47.418;0.700;2024-01-06T17:33:58;9.4351225;;9.379095;;;;;;;
44530;SPS30;30240;47.418;0.700;2024-01-06T17:36:23;9.495029;;9.443613;;;;;;;
44530;SPS30;30240;47.418;0.700;2024-01-06T17:38:48;8.211287;;8.136289;;;;;;;
44530;SPS30;30240;47.418;0.700;2024-01-06T17:41:13;8.358537;;8.30557;;;;;;;
44530;SPS30;30240;47.418;0.700;2024-01-06T17:43:38;8.60834;;8.56391;;;;;;;
44530;SPS30;30240;47.418;0.700;2024-01-06T17:46:03;8.60834;;8.56391;;;;;;;
44530;SPS30;30240;47.418;0.700;2024-01-06T17:48:29;7.559735;;7.511077;;;;;;;
44530;SPS30;30240;47.418;0.700;2024-01-06T17:50:54;7.322821;;7.295568;;;;;;;
44530;SPS30;30240;47.418;0.700;2024-01-06T17:53:18;7.4204226;;7.4204226;;;;;;;
44530;SPS30;30240;47.418;0.700;2024-01-06T17:55:43;9.09368;;8.967786;;;;;;;
44530;SPS30;30240;47.418;0.700;2024-01-06T17:58:08;9.09368;;8.967786;;;;;;;
44530;SPS30;30240;47.418;0.700;2024-01-06T18:00:34;9.109469;;9.108667;;;;;;;
44530;SPS30;30240;47.418;0.700;2024-01-06T18:02:59;8.816541;;8.7269945;;;;;;;
44530;SPS30;30240;47.418;0.700;2024-01-06T18:05:23;10.474414;;10.452595;;;;;;;
44530;SPS30;30240;47.418;0.700;2024-01-06T18:07:49;7.4035974;;7.3015227;;;;;;;
44530;SPS30;30240;47.418;0.700;2024-01-06T18:10:14;7.4035974;;7.3015227;;;;;;;
44530;SPS30;30240;47.418;0.700;2024-01-06T18:12:38;6.7158556;;6.7158074;;;;;;;
44530;SPS30;30240;47.418;0.700;2024-01-06T18:15:04;6.8913026;;6.8913026;;;;;;;
44530;SPS30;30240;47.418;0.700;2024-01-06T18:17:29;6.309082;;6.309082;;;;;;;
44530;SPS30;30240;47.418;0.700;2024-01-06T18:19:53;5.5638113;;5.5638113;;;;;;;
44530;SPS30;30240;47.418;0.700;2024-01-06T18:22:18;4.874631;;4.8482957;;;;;;;
44530;SPS30;30240;47.418;0.700;2024-01-06T18:24:43;4.874631;;4.8482957;;;;;;;
44530;SPS30;30240;47.418;0.700;2024-01-06T18:27:08;6.006587;;5.9788284;;;;;;;
44530;SPS30;30240;47.418;0.700;2024-01-06T18:29:34;5.318773;;5.3174105;;;;;;;
44530;SPS30;30240;47.418;0.700;2024-01-06T18:31:59;5.1621222;;5.1410255;;;;;;;
44530;SPS30;30240;47.418;0.700;2024-01-06T18:34:23;5.438974;;5.438974;;;;;;;
44530;SPS30;30240;47.418;0.700;2024-01-06T18:36:48;5.438974;;5.438974;;;;;;;
44530;SPS30;30240;47.418;0.700;2024-01-06T18:39:14;5.4386663;;5.4386663;;;;;;;
44530;SPS30;30240;47.418;0.700;2024-01-06T18:41:38;4.879399;;4.879399;;;;;;;
44530;SPS30;30240;47.418;0.700;2024-01-06T18:44:03;9.289214;;9.276076;;;;;;;
44530;SPS30;30240;47.418;0.700;2024-01-06T18:46:28;6.3496475;;6.2803965;;;;;;;
44530;SPS30;30240;47.418;0.700;2024-01-06T18:48:53;6.3496475;;6.2803965;;;;;;;
44530;SPS30;30240;47.418;0.700;2024-01-06T18:51:19;5.107175;;5.0603848;;;;;;;
44530;SPS30;30240;47.418;0.700;2024-01-06T18:53:45;4.4343834;;4.4343834;;;;;;;
44530;SPS30;30240;47.418;0.700;2024-01-06T18:56:08;4.8058996;;4.764356;;;;;;;
44530;SPS30;30240;47.418;0.700;2024-01-06T18:58:33;4.0935826;;4.0935826;;;;;;;
44530;SPS30;30240;47.418;0.700;2024-01-06T19:00:58;4.0935826;;4.0935826;;;;;;;
44530;SPS30;30240;47.418;0.700;2024-01-06T19:03:23;3.5554113;;3.5554113;;;;;;;
44530;SPS30;30240;47.418;0.700;2024-01-06T19:05:48;3.1375775;;3.1374135;;;;;;;
44530;SPS30;30240;47.418;0.700;2024-01-06T19:08:13;4.0544505;;4.0542517;;;;;;;
44530;SPS30;30240;47.418;0.700;2024-01-06T19:10:38;3.045654;;3.0347762;;;;;;;
44530;SPS30;30240;47.418;0.700;2024-01-06T19:13:03;3.045654;;3.0347762;;;;;;;
44530;SPS30;30240;47.418;0.700;2024-01-06T19:15:28;4.06552;;4.029848;;;;;;;
44530;SPS30;30240;47.418;0.700;2024-01-06T19:17:54;3.591721;;3.591696;;;;;;;
44530;SPS30;30240;47.418;0.700;2024-01-06T19:20:18;2.4163287;;2.4013166;;;;;;;
44530;SPS30;30240;47.418;0.700;2024-01-06T19:22:43;2.4597397;;2.449014;;;;;;;
44530;SPS30;30240;47.418;0.700;2024-01-06T19:25:09;2.4597397;;2.449014;;;;;;;
44530;SPS30;30240;47.418;0.700;2024-01-06T19:27:34;2.5125918;;2.5125744;;;;;;;
44530;SPS30;30240;47.418;0.700;2024-01-06T19:29:58;2.6430514;;2.6430514;;;;;;;
44530;SPS30;30240;47.418;0.700;2024-01-06T19:32:24;2.837881;;2.837881;;;;;;;
44530;SPS30;30240;47.418;0.700;2024-01-06T19:34:48;3.263242;;3.263242;;;;;;;
44530;SPS30;30240;47.418;0.700;2024-01-06T19:37:14;3.263242;;3.263242;;;;;;;
44530;SPS30;30240;47.418;0.700;2024-01-06T19:39:39;3.4859009;;3.4859009;;;;;;;
44530;SPS30;30240;47.418;0.700;2024-01-06T19:42:04;3.0706747;;3.0706747;;;;;;;
44530;SPS30;30240;47.418;0.700;2024-01-06T19:44:30;3.0847838;;3.0847838;;;;;;;
44530;SPS30;30240;47.418;0.700;2024-01-06T19:46:54;3.8823671;;3.8823671;;;;;;;
44530;SPS30;30240;47.418;0.700;2024-01-06T19:49:19;3.0861967;;3.0861967;;;;;;;
44530;SPS30;30240;47.418;0.700;2024-01-06T19:51:44;3.0861967;;3.0861967;;;;;;;
44530;SPS30;30240;47.418;0.700;2024-01-06T19:54:09;2.9852614;;2.9852614;;;;;;;
44530;SPS30;30240;47.418;0.700;2024-01-06T19:56:34;2.8234842;;2.8234842;;;;;;;
44530;SPS30;30240;47.418;0.700;2024-01-06T19:58:59;3.492521;;3.492521;;;;;;;
44530;SPS30;30240;47.418;0.700;2024-01-06T20:01:23;3.0765018;;3.0765018;;;;;;;
44530;SPS30;30240;47.418;0.700;2024-01-06T20:03:48;3.0765018;;3.0765018;;;;;;;
44530;SPS30;30240;47.418;0.700;2024-01-06T20:06:13;3.1169567;;3.1169567;;;;;;;
44530;SPS30;30240;47.418;0.700;2024-01-06T20:08:38;3.2895129;;3.2895129;;;;;;;
44530;SPS30;30240;47.418;0.700;2024-01-06T20:11:04;2.9404657;;2.9404657;;;;;;;
44530;SPS30;30240;47.418;0.700;2024-01-06T20:13:29;2.9508462;;2.9508462;;;;;;;
44530;SPS30;30240;47.418;0.700;2024-01-06T20:15:54;2.9508462;;2.9508462;;;;;;;
44530;SPS30;30240;47.418;0.700;2024-01-06T20:18:18;3.6623526;;3.6623526;;;;;;;
44530;SPS30;30240;47.418;0.700;2024-01-06T20:20:44;3.916217;;3.916217;;;;;;;
44530;SPS30;30240;47.418;0.700;2024-01-06T20:23:08;3.3915193;;3.3915193;;;;;;;
44530;SPS30;30240;47.418;0.700;2024-01-06T20:25:33;4.80169;;4.80169;;;;;;;
44530;SPS30;30240;47.418;0.700;2024-01-06T20:27:58;4.80169;;4.80169;;;;;;;
44530;SPS30;30240;47.418;0.700;2024-01-06T20:30:24;3.6114016;;3.6114016;;;;;;;
44530;SPS30;30240;47.418;0.700;2024-01-06T20:32:48;3.6133265;;3.6133265;;;;;;;
44530;SPS30;30240;47.418;0.700;2024-01-06T20:35:13;3.6257782;;3.6257782;;;;;;;
44530;SPS30;30240;47.418;0.700;2024-01-06T20:37:39;3.9236286;;3.9236286;;;;;;;
44530;SPS30;30240;47.418;0.700;2024-01-06T20:40:04;3.9236286;;3.9236286;;;;;;;
44530;SPS30;30240;47.418;0.700;2024-01-06T20:42:28;5.102544;;5.102544;;;;;;;
44530;SPS30;30240;47.418;0.700;2024-01-06T20:44:54;5.334383;;5.334383;;;;;;;
44530;SPS30;30240;47.418;0.700;2024-01-06T20:47:19;4.014478;;4.014478;;;;;;;
44530;SPS30;30240;47.418;0.700;2024-01-06T20:49:44;4.148019;;4.148019;;;;;;;
44530;SPS30;30240;47.418;0.700;2024-01-06T20:52:09;4.148019;;4.148019;;;;;;;
44530;SPS30;30240;47.418;0.700;2024-01-06T20:54:35;5.139465;;5.139465;;;;;;;
44530;SPS30;30240;47.418;0.700;2024-01-06T20:56:58;5.013222;;5.013222;;;;;;;
44530;SPS30;30240;47.418;0.700;2024-01-06T20:59:23;4.1661325;;4.1661325;;;;;;;
44530;SPS30;30240;47.418;0.700;2024-01-06T21:01:48;3.2252061;;3.2252061;;;;;;;
44530;SPS30;30240;47.418;0.700;2024-01-06T21:04:13;3.2252061;;3.2252061;;;;;;;
44530;SPS30;30240;47.418;0.700;2024-01-06T21:06:38;3.607674;;3.607674;;;;;;;
44530;SPS30;30240;47.418;0.700;2024-01-06T21:09:03;3.7279706;;3.7279706;;;;;;;
44530;SPS30;30240;47.418;0.700;2024-01-06T21:11:29;3.6768386;;3.6768386;;;;;;;
44530;SPS30;30240;47.418;0.700;2024-01-06T21:13:53;3.3377333;;3.3377333;;;;;;;
44530;SPS30;30240;47.418;0.700;2024-01-06T21:16:18;3.3377333;;3.3377333;;;;;;;
44530;SPS30;30240;47.418;0.700;2024-01-06T21:18:44;6.157263;;6.1363425;;;;;;;
44530;SPS30;30240;47.418;0.700;2024-01-06T21:21:12;6.9668393;;6.943903;;;;;;;
44530;SPS30;30240;47.418;0.700;2024-01-06T21:23:33;7.352866;;7.3446603;;;;;;;
44530;SPS30;30240;47.418;0.700;2024-01-06T21:25:58;4.7101984;;4.7101984;;;;;;;
44530;SPS30;30240;47.418;0.700;2024-01-06T21:28:23;3.4704552;;3.4704552;;;;;;;
44530;SPS30;30240;47.418;0.700;2024-01-06T21:30:49;3.4704552;;3.4704552;;;;;;;
44530;SPS30;30240;47.418;0.700;2024-01-06T21:33:13;3.5763698;;3.560224;;;;;;;
44530;SPS30;30240;47.418;0.700;2024-01-06T21:35:39;2.6075788;;2.6075788;;;;;;;
44530;SPS30;30240;47.418;0.700;2024-01-06T21:38:03;2.8607252;;2.8607252;;;;;;;
44530;SPS30;30240;47.418;0.700;2024-01-06T21:40:28;2.2806706;;2.2806706;;;;;;;
44530;SPS30;30240;47.418;0.700;2024-01-06T21:42:53;2.2806706;;2.2806706;;;;;;;
44530;SPS30;30240;47.418;0.700;2024-01-06T21:45:19;2.4155254;;2.4155254;;;;;;;
44530;SPS30;30240;47.418;0.700;2024-01-06T21:47:43;2.4544568;;2.4544568;;;;;;;
44530;SPS30;30240;47.418;0.700;2024-01-06T21:50:09;2.648941;;2.648941;;;;;;;
44530;SPS30;30240;47.418;0.700;2024-01-06T21:52:34;2.5092604;;2.5092604;;;;;;;
44530;SPS30;30240;47.418;0.700;2024-01-06T21:54:59;2.5092604;;2.5092604;;;;;;;
44530;SPS30;30240;47.418;0.700;2024-01-06T21:57:23;2.906957;;2.906957;;;;;;;
44530;SPS30;30240;47.418;0.700;2024-01-06T21:59:48;3.199204;;3.199204;;;;;;;
44530;SPS30;30240;47.418;0.700;2024-01-06T22:02:13;2.2979941;;2.2979941;;;;;;;
44530;SPS30;30240;47.418;0.700;2024-01-06T22:04:39;3.1271217;;3.1271217;;;;;;;
44530;SPS30;30240;47.418;0.700;2024-01-06T22:07:04;3.1271217;;3.1271217;;;;;;;
44530;SPS30;30240;47.418;0.700;2024-01-06T22:09:28;2.840553;;2.8328316;;;;;;;
44530;SPS30;30240;47.418;0.700;2024-01-06T22:11:54;2.9079452;;2.8962748;;;;;;;
44530;SPS30;30240;47.418;0.700;2024-01-06T22:14:18;2.546391;;2.5373402;;;;;;;
44530;SPS30;30240;47.418;0.700;2024-01-06T22:16:44;3.2373555;;3.2299688;;;;;;;
44530;SPS30;30240;47.418;0.700;2024-01-06T22:19:09;3.2373555;;3.2299688;;;;;;;
44530;SPS30;30240;47.418;0.700;2024-01-06T22:21:37;2.6427274;;2.6227229;;;;;;;
44530;SPS30;30240;47.418;0.700;2024-01-06T22:23:59;3.1997266;;3.1742327;;;;;;;
44530;SPS30;30240;47.418;0.700;2024-01-06T22:26:23;3.8744683;;3.830461;;;;;;;
44530;SPS30;30240;47.418;0.700;2024-01-06T22:28:48;3.9407163;;3.9207802;;;;;;;
44530;SPS30;30240;47.418;0.700;2024-01-06T22:31:13;3.9407163;;3.9207802;;;;;;;
44530;SPS30;30240;47.418;0.700;2024-01-06T22:33:38;4.1128836;;4.045548;;;;;;;
44530;SPS30;30240;47.418;0.700;2024-01-06T22:36:10;4.3062115;;4.2238507;;;;;;;
44530;SPS30;30240;47.418;0.700;2024-01-06T22:38:28;4.8849115;;4.7488346;;;;;;;
44530;SPS30;30240;47.418;0.700;2024-01-06T22:40:53;2.9544737;;2.883296;;;;;;;
44530;SPS30;30240;47.418;0.700;2024-01-06T22:43:18;2.9544737;;2.883296;;;;;;;
44530;SPS30;30240;47.418;0.700;2024-01-06T22:45:43;3.9945595;;3.948356;;;;;;;
44530;SPS30;30240;47.418;0.700;2024-01-06T22:48:09;3.2842054;;3.2842054;;;;;;;
44530;SPS30;30240;47.418;0.700;2024-01-06T22:50:34;3.186029;;3.1859803;;;;;;;
44530;SPS30;30240;47.418;0.700;2024-01-06T22:52:58;3.168319;;3.1671157;;;;;;;
44530;SPS30;30240;47.418;0.700;2024-01-06T22:55:24;3.842512;;3.8238962;;;;;;;
44530;SPS30;30240;47.418;0.700;2024-01-06T22:57:48;3.842512;;3.8238962;;;;;;;
44530;SPS30;30240;47.418;0.700;2024-01-06T23:00:14;3.4629467;;3.4629467;;;;;;;
44530;SPS30;30240;47.418;0.700;2024-01-06T23:02:38;3.9673705;;3.966509;;;;;;;
44530;SPS30;30240;47.418;0.700;2024-01-06T23:05:04;3.453661;;3.453661;;;;;;;
44530;SPS30;30240;47.418;0.700;2024-01-06T23:07:28;2.9873896;;2.9873896;;;;;;;
44530;SPS30;30240;47.418;0.700;2024-01-06T23:09:53;2.9873896;;2.9873896;;;;;;;
44530;SPS30;30240;47.418;0.700;2024-01-06T23:12:18;3.350942;;3.350942;;;;;;;
44530;SPS30;30240;47.418;0.700;2024-01-06T23:14:43;2.6709495;;2.6709495;;;;;;;
44530;SPS30;30240;47.418;0.700;2024-01-06T23:17:08;2.2698326;;2.2698326;;;;;;;
44530;SPS30;30240;47.418;0.700;2024-01-06T23:19:33;2.6686738;;2.6686738;;;;;;;
44530;SPS30;30240;47.418;0.700;2024-01-06T23:21:58;2.6686738;;2.6686738;;;;;;;
44530;SPS30;30240;47.418;0.700;2024-01-06T23:24:23;2.6170795;;2.6170795;;;;;;;
44530;SPS30;30240;47.418;0.700;2024-01-06T23:26:48;2.6772075;;2.674758;;;;;;;
44530;SPS30;30240;47.418;0.700;2024-01-06T23:29:13;2.5624368;;2.5521667;;;;;;;
44530;SPS30;30240;47.418;0.700;2024-01-06T23:31:38;2.5534759;;2.5534759;;;;;;;
44530;SPS30;30240;47.418;0.700;2024-01-06T23:34:04;2.5534759;;2.5534759;;;;;;;
44530;SPS30;30240;47.418;0.700;2024-01-06T23:36:28;2.2195132;;2.2195132;;;;;;;
44530;SPS30;30240;47.418;0.700;2024-01-06T23:38:53;2.2540355;;2.2540355;;;;;;;
44530;SPS30;30240;47.418;0.700;2024-01-06T23:41:18;2.8106616;;2.810557;;;;;;;
44530;SPS30;30240;47.418;0.700;2024-01-06T23:43:43;2.4932315;;2.4932315;;;;;;;
44530;SPS30;30240;47.418;0.700;2024-01-06T23:46:08;2.4932315;;2.4932315;;;;;;;
44530;SPS30;30240;47.418;0.700;2024-01-06T23:48:34;2.2146246;;2.2146246;;;;;;;
44530;SPS30;30240;47.418;0.700;2024-01-06T23:50:59;2.5313087;;2.5313087;;;;;;;
44530;SPS30;30240;47.418;0.700;2024-01-06T23:53:23;2.1602938;;2.1602926;;;;;;;
44530;SPS30;30240;47.418;0.700;2024-01-06T23:55:48;2.3662274;;2.3565319;;;;;;;
44530;SPS30;30240;47.418;0.700;2024-01-06T23:58:14;2.3662274;;2.3565319;;;;;;;
